Latest Weather Observations for Mount Read

IDT60801

Issued at 12:41 am EST Friday 23 April 2021 (issued every 10 minutes, with the page automatically refreshed every 10 minutes)

About weather observations | Map of weather stations | Latest weather observations for TAS | Other Formats
Station Details ID: 097085 Name: MOUNT READ Lat: -41.84 Lon: 145.54 Height: 1119.5 m
Data from the previous 72 hours. | See also: Recent months at Mount Read
Date/Time
EST
Temp
°C
App
Temp
°C
Dew
Point
°C
Rel
Hum
%
Delta-T
°C
Wind Press
QNH
hPa
Press
MSL
hPa
Rain since
9am
mm
Dir  Spd
km/h
Gust
km/h
Spd
kts
Gust
kts
23/12:32am 2.2 -8.2 2.2 100 0.0 W 46 69 25 37 1005.9 1005.8 18.2
23/12:30am 2.1 -7.9 2.1 100 0.0 W 44 59 24 32 1005.7 1005.6 18.2
23/12:21am 2.0 -8.8 2.0 100 0.0 W 48 69 26 37 1006.1 1006.0 18.2
23/12:00am 2.0 -8.8 2.0 100 0.0 W 48 65 26 35 1006.0 1005.9 18.2
 
Date/Time
EST
Temp
°C
App
Temp
°C
Dew
Point
°C
Rel
Hum
%
Delta-T
°C
Wind Press
QNH
hPa
Press
MSL
hPa
Rain since
9am
mm
Dir  Spd
km/h
Gust
km/h
Spd
kts
Gust
kts
22/11:30pm 2.4 -7.4 2.4 100 0.0 WSW 43 61 23 33 1006.3 1006.2 17.0
22/11:12pm 2.3 -8.1 2.3 100 0.0 W 46 67 25 36 1005.9 1005.8 16.0
22/11:00pm 2.2 -7.6 2.2 100 0.0 W 43 59 23 32 1005.9 1005.8 15.6
22/10:51pm 2.3 -7.7 2.3 100 0.0 W 44 67 24 36 1006.2 1006.1 15.6
22/10:48pm 2.3 -7.5 2.3 100 0.0 W 43 67 23 36 1006.0 1005.9 15.6
22/10:36pm 2.4 -5.9 2.4 100 0.0 W 35 57 19 31 1006.2 1006.1 15.2
22/10:30pm 2.4 -6.2 2.4 100 0.0 W 37 54 20 29 1006.3 1006.2 15.2
22/10:00pm 2.6 -8.1 2.6 100 0.0 W 48 67 26 36 1005.9 1005.8 15.2
22/09:45pm 2.5 -7.4 2.5 100 0.0 W 44 67 24 36 1005.7 1005.6 15.0
22/09:30pm 2.5 -6.5 2.5 100 0.0 W 39 56 21 30 1005.7 1005.6 14.6
22/09:00pm 2.1 -5.6 2.1 100 0.0 W 32 46 17 25 1005.9 1005.8 14.4
22/08:30pm 2.0 -7.5 2.0 100 0.0 WSW 41 56 22 30 1005.5 1005.4 14.4
22/08:00pm 2.3 -8.8 2.3 100 0.0 WSW 50 67 27 36 1005.1 1005.0 14.4
22/07:36pm 2.2 -8.9 2.2 100 0.0 WSW 50 70 27 38 1005.1 1005.0 14.4
22/07:30pm 2.5 -9.0 2.5 100 0.0 WSW 52 69 28 37 1005.0 1004.8 14.4
22/07:16pm 2.7 -6.6 2.7 100 0.0 W 41 61 22 33 1005.0 1004.8 14.4
22/07:00pm 2.4 -7.4 2.4 100 0.0 W 43 56 23 30 1004.8 1004.7 14.2
22/06:30pm 2.1 -6.6 2.1 100 0.0 WSW 37 54 20 29 1004.8 1004.7 14.2
22/06:04pm 2.5 -6.9 2.5 100 0.0 WSW 41 59 22 32 1004.2 1004.0 14.2
22/06:00pm 2.6 -6.4 2.6 100 0.0 WSW 39 56 21 30 1004.2 1004.0 14.2
22/05:30pm 3.1 -7.1 3.1 100 0.0 WSW 46 72 25 39 1003.4 1003.2 14.0
22/05:24pm 3.1 -8.3 3.1 100 0.0 WSW 52 72 28 39 1003.4 1003.2 13.8
22/05:21pm 3.0 -8.8 3.0 100 0.0 WSW 54 72 29 39 1003.0 1002.8 13.6
22/05:07pm 3.1 -5.8 3.1 100 0.0 WSW 39 63 21 34 1003.3 1003.1 13.4
22/05:00pm 3.0 -6.3 3.0 100 0.0 W 41 54 22 29 1003.3 1003.1 13.2
22/04:43pm 3.2 -6.1 3.2 100 0.0 W 41 61 22 33 1003.3 1003.1 12.8
22/04:30pm 3.1 -7.1 3.1 100 0.0 W 46 59 25 32 1003.2 1003.0 12.8
22/04:00pm 3.5 -8.7 3.5 100 0.0 W 57 78 31 42 1002.7 1002.6 12.8
22/03:35pm 3.7 -6.4 3.7 100 0.0 W 46 67 25 36 1002.7 1002.6 12.6
22/03:30pm 3.8 -6.3 3.8 100 0.0 W 46 67 25 36 1002.6 1002.4 12.4
22/03:00pm 3.5 -8.2 3.5 100 0.0 W 54 76 29 41 1002.3 1002.1 12.4
22/02:30pm 4.4 -4.6 4.4 100 0.0 W 41 63 22 34 1002.1 1001.9 11.4
22/02:04pm 4.4 -3.5 4.4 100 0.0 W 35 57 19 31 1001.9 1001.8 8.8
22/02:00pm 4.4 -3.9 4.4 100 0.0 W 37 48 20 26 1001.9 1001.8 8.8
22/01:30pm 4.3 -4.7 4.3 100 0.0 WNW 41 59 22 32 1002.4 1002.2 8.2
22/01:00pm 4.4 -4.6 4.4 100 0.0 WNW 41 61 22 33 1002.4 1002.2 6.0
22/12:30pm 3.9 -5.6 3.9 100 0.0 WNW 43 69 23 37 1002.4 1002.2 4.0
22/12:00pm 3.9 -5.6 3.9 100 0.0 WNW 43 65 23 35 1002.8 1002.7 2.8
22/11:51am 3.8 -5.3 3.8 100 0.0 WNW 41 65 22 35 1003.0 1002.8 2.8
22/11:30am 3.8 -4.6 3.8 100 0.0 WNW 37 56 20 30 1003.2 1003.0 2.8
22/11:00am 3.3 -7.6 3.3 100 0.0 W 50 70 27 38 1002.8 1002.7 2.8
22/10:31am 3.1 -7.5 3.1 100 0.0 W 48 67 26 36 1003.0 1002.8 2.4
22/10:30am 3.1 -7.9 3.1 100 0.0 W 50 67 27 36 1003.0 1002.8 2.4
22/10:16am 2.9 -8.5 2.9 100 0.0 WNW 52 82 28 44 1003.1 1002.9 2.2
22/10:13am 3.0 -7.2 3.0 100 0.0 WNW 46 82 25 44 1002.5 1002.3 2.2
22/10:12am 3.2 -6.4 3.2 100 0.0 WNW 43 82 23 44 1002.8 1002.7 2.0
22/10:00am 3.0 -5.9 3.0 100 0.0 WNW 39 61 21 33 1003.2 1003.0 1.6
22/09:30am 2.7 -7.2 2.7 100 0.0 WNW 44 65 24 35 1003.5 1003.4 1.6
22/09:00am 2.7 -5.9 2.7 100 0.0 WNW 37 70 20 38 1003.5 1003.4 21.8
22/08:30am 1.9 -8.5 1.9 100 0.0 WNW 46 70 25 38 1003.4 1003.2 21.6
22/08:21am 2.5 -6.1 2.5 100 0.0 WNW 37 70 20 38 1003.4 1003.2 21.6
22/08:00am 2.5 -5.7 2.5 100 0.0 WNW 35 50 19 27 1003.6 1003.5 20.4
22/07:54am 2.5 -5.2 2.5 100 0.0 WNW 32 50 17 27 1003.5 1003.4 20.4
22/07:30am 2.4 -6.6 2.4 100 0.0 WNW 39 54 21 29 1003.3 1003.1 20.4
22/07:00am 2.3 -6.7 2.3 100 0.0 W 39 54 21 29 1003.1 1002.9 20.4
22/06:30am 2.6 -7.7 2.6 100 0.0 WNW 46 70 25 38 1002.8 1002.7 20.2
22/06:00am 2.9 -5.6 2.9 100 0.0 WNW 37 61 20 33 1002.8 1002.7 20.0
22/05:30am 2.9 -6.0 2.9 100 0.0 WNW 39 59 21 32 1003.2 1003.0 19.8
22/05:00am 2.9 -4.7 2.9 100 0.0 NW 32 56 17 30 1003.1 1002.9 18.4
22/04:40am 2.9 -6.0 2.9 100 0.0 WNW 39 61 21 33 1003.1 1002.9 18.4
22/04:30am 2.9 -5.6 2.9 100 0.0 WNW 37 52 20 28 1003.3 1003.1 18.4
22/04:00am 2.6 -6.0 2.6 100 0.0 WNW 37 56 20 30 1003.3 1003.1 18.4
22/03:33am 2.9 -4.7 2.9 100 0.0 WNW 32 52 17 28 1003.4 1003.2 18.4
22/03:30am 2.9 -4.7 2.9 100 0.0 WNW 32 46 17 25 1003.5 1003.4 18.4
22/03:00am 3.7 -5.8 3.7 100 0.0 WNW 43 61 23 33 1003.4 1003.2 18.4
22/02:30am 4.3 -2.7 4.3 100 0.0 WNW 30 61 16 33 1003.5 1003.4 17.2
22/02:00am 4.7 -4.7 4.7 100 0.0 NW 43 80 23 43 1004.0 1003.8 15.8
22/01:54am 4.5 -3.7 4.5 100 0.0 NW 37 65 20 35 1003.8 1003.7 15.8
22/01:30am 4.5 -3.0 4.5 100 0.0 NNW 33 54 18 29 1003.8 1003.7 14.6
22/01:07am 4.5 -2.0 4.5 100 0.0 NNW 28 52 15 28 1004.1 1003.9 13.8
22/01:00am 4.4 -2.2 4.4 100 0.0 NNW 28 46 15 25 1004.4 1004.3 12.8
22/12:33am 4.3 -2.3 4.3 100 0.0 NNW 28 48 15 26 1004.5 1004.4 11.6
22/12:30am 4.3 -1.9 4.3 100 0.0 NNW 26 48 14 26 1004.5 1004.4 11.4
22/12:00am 4.1 -2.5 4.1 100 0.0 NNW 28 52 15 28 1005.0 1004.8 9.8
 
Date/Time
EST
Temp
°C
App
Temp
°C
Dew
Point
°C
Rel
Hum
%
Delta-T
°C
Wind Press
QNH
hPa
Press
MSL
hPa
Rain since
9am
mm
Dir  Spd
km/h
Gust
km/h
Spd
kts
Gust
kts
21/11:35pm 3.8 -3.3 3.8 100 0.0 NNW 30 50 16 27 1005.2 1005.1 8.4
21/11:30pm 3.8 -3.6 3.8 100 0.0 NNW 32 43 17 23 1005.3 1005.2 8.2
21/11:00pm 3.7 -3.8 3.7 100 0.0 NNW 32 63 17 34 1005.7 1005.6 6.4
21/10:30pm 3.6 -4.8 3.6 100 0.0 NNW 37 61 20 33 1006.1 1006.0 6.4
21/10:00pm 3.5 -3.6 3.5 100 0.0 NNW 30 57 16 31 1006.4 1006.3 6.0
21/09:33pm 3.6 -3.1 3.6 100 0.0 NNW 28 56 15 30 1006.5 1006.4 5.8
21/09:30pm 3.6 -2.4 3.6 100 0.0 NNW 24 54 13 29 1006.7 1006.7 5.6
21/09:21pm 3.4 -3.3 3.4 100 0.0 NW 28 48 15 26 1006.9 1006.8 5.6
21/09:00pm 3.2 -4.3 3.2 100 0.0 NNW 32 50 17 27 1007.1 1007.0 5.2
21/08:35pm 3.0 -3.8 3.0 100 0.0 NNW 28 48 15 26 1007.2 1007.1 4.4
21/08:30pm 3.1 -3.3 3.1 100 0.0 NNW 26 46 14 25 1007.2 1007.1 4.4
21/08:00pm 2.9 -4.3 2.9 100 0.0 NNW 30 46 16 25 1007.1 1007.0 4.2
21/07:40pm 2.8 -4.1 2.8 100 0.0 NNW 28 56 15 30 1007.3 1007.2 4.0
21/07:30pm 2.8 -4.4 2.8 100 0.0 NNW 30 43 16 23 1007.4 1007.4 4.0
21/07:01pm 2.6 -4.7 2.6 100 0.0 NNW 30 52 16 28 1007.5 1007.5 4.0
21/07:00pm 2.7 -4.6 2.7 100 0.0 NNW 30 48 16 26 1007.5 1007.5 4.0
21/06:32pm 2.6 -4.7 2.6 100 0.0 NNW 30 50 16 27 1007.6 1007.6 3.6
21/06:30pm 2.6 -5.0 2.6 100 0.0 NNW 32 50 17 27 1007.5 1007.5 3.6
21/06:01pm 2.3 -5.4 2.3 100 0.0 NNW 32 52 17 28 1007.4 1007.4 3.4
21/06:00pm 2.3 -5.6 2.3 100 0.0 NNW 33 52 18 28 1007.5 1007.5 3.2
21/05:51pm 2.3 -4.6 2.3 100 0.0 NNW 28 46 15 25 1007.5 1007.5 2.8
21/05:30pm 2.3 -5.0 2.3 100 0.0 NNW 30 46 16 25 1007.5 1007.5 2.2
21/05:17pm 2.3 -5.0 2.3 100 0.0 NNW 30 48 16 26 1007.6 1007.6 2.0
21/05:00pm 2.4 -4.5 2.4 100 0.0 NNW 28 44 15 24 1007.7 1007.7 2.0
21/04:38pm 2.1 -5.8 2.1 100 0.0 NNW 33 52 18 28 1008.0 1007.9 1.8
21/04:30pm 2.0 -6.3 2.0 100 0.0 NNW 35 54 19 29 1008.0 1007.9 1.8
21/04:00pm 2.0 -6.3 2.0 100 0.0 NNW 35 54 19 29 1008.3 1008.3 1.8
21/03:30pm 2.0 -5.4 2.0 100 0.0 NNW 30 50 16 27 1008.6 1008.6 1.6
21/03:00pm 1.8 -5.6 1.8 100 0.0 NNW 30 50 16 27 1008.9 1008.8 1.6
21/02:37pm 1.8 -5.2 1.8 100 0.0 NNW 28 46 15 25 1009.0 1009.0 1.6
21/02:30pm 1.7 -5.3 1.7 100 0.0 NW 28 52 15 28 1009.2 1009.2 1.6
21/02:00pm 1.5 -6.0 1.5 100 0.0 NNW 30 56 16 30 1009.2 1009.2 1.4
21/01:41pm 1.3 -6.6 1.3 100 0.0 NNW 32 52 17 28 1009.5 1009.5 1.4
21/01:30pm 1.6 -5.1 1.6 100 0.0 NNW 26 43 14 23 1009.5 1009.5 0.6
21/01:11pm 1.7 -6.1 1.7 100 0.0 NNW 32 52 17 28 1009.8 1009.8 0.6
21/01:00pm 1.4 -6.6 1.4 100 0.0 NNW 33 48 18 26 1009.6 1009.6 0.6
21/12:47pm 1.4 -6.1 1.4 100 0.0 NNW 30 48 16 26 1009.9 1009.9 0.6
21/12:30pm 1.5 -5.6 1.5 100 0.0 NNW 28 43 15 23 1010.1 1010.1 0.6
21/12:00pm 1.0 -5.4 1.0 100 0.0 NNW 24 35 13 19 1010.9 1010.9 0.6
21/11:30am 0.6 -5.5 0.6 100 0.0 NNW 22 35 12 19 1011.2 1011.2 0.6
21/11:00am 0.7 -4.4 0.7 100 0.0 NNW 17 32 9 17 1011.5 1011.6 0.6
21/10:30am -0.2 -7.2 -0.2 100 0.0 NNW 26 33 14 18 1011.5 1011.6 0.6
21/10:00am 0.0 -4.5 0.0 100 0.0 NNW 13 24 7 13 1011.9 1011.9 0.6
21/09:30am -0.3 -5.2 -0.3 100 0.0 NNW 15 24 8 13 1012.1 1012.2 0.2
21/09:00am -0.5 -4.7 -0.6 99 0.0 NNW 11 20 6 11 1012.2 1012.3 3.2
21/08:30am -0.5 -5.4 -0.6 99 0.0 WNW 15 22 8 12 1012.3 1012.4 2.6
21/08:00am -1.0 -6.4 -1.1 99 0.0 S 17 20 9 11 1012.2 1012.3 2.6
21/07:30am -0.9 -6.3 -1.0 99 0.0 S 17 20 9 11 1012.1 1012.2 2.6
21/07:00am -1.2 -7.0 -1.3 99 0.0 S 19 20 10 11 1012.0 1012.0 2.6
21/06:30am -1.3 -6.4 -1.6 98 0.0 S 15 19 8 10 1012.0 1012.0 2.6
21/06:00am -1.4 -6.5 -2.0 96 0.2 S 15 17 8 9 1011.9 1011.9 2.6
21/05:30am -1.5 -7.0 -2.2 95 0.2 S 17 20 9 11 1011.9 1011.9 2.6
21/05:00am -1.5 -7.0 -1.8 98 0.0 S 17 19 9 10 1011.9 1011.9 2.6
21/04:30am -1.4 -6.9 -1.8 97 0.1 S 17 22 9 12 1011.8 1011.8 2.6
21/04:00am -1.9 -7.5 -2.6 95 0.2 S 17 19 9 10 1011.8 1011.8 2.6
21/03:30am -1.9 -7.5 -2.5 96 0.1 S 17 19 9 10 1011.5 1011.6 2.6
21/03:00am -1.9 -7.8 -2.5 96 0.1 S 19 22 10 12 1011.8 1011.8 2.6
21/02:30am -1.9 -7.4 -2.2 98 0.0 S 17 17 9 9 1011.8 1011.8 2.6
21/02:00am -1.7 -7.8 -2.0 98 0.0 S 20 20 11 11 1012.1 1012.2 2.6
21/01:30am -1.6 -7.6 -1.7 99 0.0 S 20 22 11 12 1012.0 1012.0 2.6
21/01:00am -1.5 -7.9 -1.6 99 0.0 S 22 26 12 14 1011.9 1011.9 2.6
21/12:30am -1.4 -8.5 -1.5 99 0.0 S 26 30 14 16 1011.9 1011.9 2.6
21/12:00am -1.4 -8.5 -1.5 99 0.0 S 26 30 14 16 1011.6 1011.7 2.6
 
Date/Time
EST
Temp
°C
App
Temp
°C
Dew
Point
°C
Rel
Hum
%
Delta-T
°C
Wind Press
QNH
hPa
Press
MSL
hPa
Rain since
9am
mm
Dir  Spd
km/h
Gust
km/h
Spd
kts
Gust
kts
20/11:30pm -1.4 -8.5 -1.5 99 0.0 S 26 30 14 16 1011.8 1011.8 2.6
20/11:00pm -1.4 -8.2 -1.5 99 0.0 S 24 28 13 15 1011.8 1011.8 2.6
20/10:30pm -1.4 -9.7 -1.5 99 0.0 S 32 35 17 19 1011.5 1011.6 2.6
20/10:00pm -1.2 -8.7 -1.2 100 0.0 S 28 32 15 17 1011.3 1011.4 2.6
20/09:30pm -1.2 -8.7 -1.2 100 0.0 S 28 33 15 18 1011.3 1011.4 2.6
20/09:00pm -1.3 -8.4 -1.3 100 0.0 S 26 32 14 17 1011.0 1011.0 2.6
20/08:30pm -1.4 -9.3 -1.4 100 0.0 S 30 35 16 19 1010.8 1010.8 2.6
20/08:00pm -1.2 -9.1 -1.2 100 0.0 S 30 33 16 18 1010.5 1010.6 2.6
20/07:30pm -1.0 -8.8 -1.0 100 0.0 S 30 37 16 20 1010.3 1010.3 2.6
20/07:00pm -0.8 -9.2 -0.8 100 0.0 S 33 39 18 21 1009.8 1009.8 2.6
20/06:30pm -0.6 -10.1 -0.6 100 0.0 S 39 48 21 26 1009.1 1009.1 2.6
20/06:00pm -0.4 -10.6 -0.4 100 0.0 S 43 50 23 27 1008.6 1008.6 2.6
20/05:30pm -0.3 -11.8 -0.3 100 0.0 SSW 50 61 27 33 1008.0 1007.9 2.6
20/05:00pm -0.5 -10.3 -0.5 100 0.0 S 41 50 22 27 1007.9 1007.8 2.6
20/04:39pm 0.0 -10.2 0.0 100 0.0 SSW 43 61 23 33 1007.7 1007.7 2.6
20/04:30pm 0.4 -9.3 0.4 100 0.0 SSW 41 57 22 31 1007.7 1007.7 2.4
20/04:00pm 0.4 -9.9 0.4 100 0.0 S 44 57 24 31 1007.3 1007.2 2.4
20/03:30pm 0.1 -10.2 0.1 100 0.0 SSW 44 56 24 30 1006.7 1006.7 2.4
20/03:04pm 0.5 -8.8 0.5 100 0.0 SSW 39 57 21 31 1006.5 1006.4 2.0
20/03:00pm 1.0 -8.2 1.0 100 0.0 SSW 39 46 21 25 1006.4 1006.3 2.0
20/02:30pm 0.7 -9.0 0.7 100 0.0 S 41 54 22 29 1006.1 1006.0 2.0
20/02:00pm 0.7 -8.6 0.7 100 0.0 S 39 46 21 25 1006.0 1005.9 2.0
20/01:30pm 0.7 -10.7 0.7 100 0.0 SSW 50 57 27 31 1005.3 1005.2 2.0
20/01:00pm 0.4 -11.8 0.4 100 0.0 S 54 67 29 36 1005.1 1005.0 1.8
20/12:30pm 0.4 -11.4 0.4 100 0.0 S 52 67 28 36 1004.6 1004.5 1.6
20/12:00pm 0.8 -9.8 0.8 100 0.0 SSW 46 56 25 30 1005.0 1004.8 1.6
20/11:30am 0.9 -10.4 0.9 100 0.0 S 50 61 27 33 1004.5 1004.4 1.4
20/11:00am 0.6 -11.9 0.6 100 0.0 S 56 67 30 36 1004.2 1004.0 1.4
20/10:30am 0.7 -12.4 0.7 100 0.0 S 59 70 32 38 1003.7 1003.6 1.2
20/10:00am 0.8 -11.9 0.8 100 0.0 SSW 57 69 31 37 1003.4 1003.2 1.0
20/09:30am 1.2 -10.5 1.2 100 0.0 S 52 61 28 33 1003.1 1002.9 0.2
20/09:00am 1.9 -7.6 1.9 100 0.0 SSW 41 50 22 27 1003.4 1003.2 27.0
20/08:30am 2.3 -4.3 2.3 100 0.0 SSW 26 35 14 19 1003.8 1003.7 26.8
20/08:00am 2.6 -2.2 2.6 100 0.0 W 17 20 9 11 1003.7 1003.6 25.8
20/07:30am 2.4 -2.8 2.4 100 0.0 WNW 19 26 10 14 1003.6 1003.5 25.4
20/07:00am 2.5 -2.3 2.5 100 0.0 W 17 22 9 12 1003.6 1003.5 25.0
20/06:30am 2.5 -2.9 2.5 100 0.0 W 20 30 11 16 1003.3 1003.1 24.6
20/06:00am 2.8 -2.3 2.8 100 0.0 W 19 32 10 17 1003.3 1003.1 24.2
20/05:30am 3.4 -0.9 3.4 100 0.0 W 15 19 8 10 1003.4 1003.2 23.2
20/05:00am 3.6 -2.4 3.6 100 0.0 WNW 24 35 13 19 1003.5 1003.4 21.2
20/04:30am 3.7 -2.2 3.7 100 0.0 W 24 35 13 19 1003.4 1003.2 20.0
20/04:00am 3.8 -4.2 3.8 100 0.0 W 35 48 19 26 1003.1 1002.9 19.6
20/03:54am 3.9 -3.1 3.9 100 0.0 W 30 48 16 26 1003.2 1003.0 19.2
20/03:30am 3.9 -3.7 3.9 100 0.0 W 33 46 18 25 1003.2 1003.0 18.4
20/03:00am 4.2 -3.2 4.2 100 0.0 WSW 32 39 17 21 1003.1 1002.9 18.0
20/02:34am 6.0 -0.6 6.0 100 0.0 NW 30 65 16 35 1003.6 1003.5 16.4
20/02:30am 6.0 -2.3 6.0 100 0.0 NNW 39 65 21 35 1003.2 1003.0 15.6
20/02:00am 6.0 -3.7 6.0 100 0.0 NNW 46 78 25 42 1002.8 1002.7 14.8
20/01:30am 6.1 -3.0 6.1 100 0.0 NNW 43 85 23 46 1004.0 1003.8 14.8
20/01:00am 6.1 -3.5 6.1 100 0.0 NNW 46 82 25 44 1003.8 1003.7 14.4

Other formats

Comma delimited format used in spreadsheet applications
http://www.bom.gov.au/fwo/IDT60801/IDT60801.95952.axf

JavaScript Object Notation format (JSON) in row-major order
http://www.bom.gov.au/fwo/IDT60801/IDT60801.95952.json

Data quality

Most of these data are generated automatically and are frequently updated. Quality checks on data are not normally performed. It is possible for incorrect values to appear. Refer to information at About Latest Weather Observations and please check the disclaimer before using these data.